createdAt,value
2023-04-29T00:00:36.540Z,0.00
2023-04-29T00:01:36.718Z,0.00
2023-04-29T00:02:37.204Z,0.00
2023-04-29T00:03:37.510Z,0.00
2023-04-29T00:04:37.929Z,0.00
2023-04-29T00:05:38.129Z,0.00
2023-04-29T00:06:38.344Z,0.00
2023-04-29T00:07:38.646Z,0.00
2023-04-29T00:08:38.969Z,0.00
2023-04-29T00:09:39.292Z,0.00
2023-04-29T00:10:39.632Z,0.00
2023-04-29T00:11:39.948Z,0.00
2023-04-29T00:12:40.251Z,0.00
2023-04-29T00:13:40.576Z,0.00
2023-04-29T00:14:40.971Z,0.00
2023-04-29T00:15:41.216Z,0.00
2023-04-29T00:16:41.578Z,0.00
2023-04-29T00:17:42.017Z,0.00
2023-04-29T00:18:42.189Z,0.00
2023-04-29T00:19:42.521Z,0.00
2023-04-29T00:20:42.839Z,0.00
2023-04-29T00:21:43.172Z,0.00
2023-04-29T00:22:43.493Z,0.00
2023-04-29T00:23:43.828Z,0.00
2023-04-29T00:24:44.030Z,0.00
2023-04-29T00:25:44.336Z,0.00
2023-04-29T00:26:44.692Z,0.00
2023-04-29T00:27:45.019Z,0.00
2023-04-29T00:28:45.320Z,0.00
2023-04-29T00:29:45.648Z,0.00
2023-04-29T00:30:46.113Z,20.00
2023-04-29T00:31:46.329Z,20.00
2023-04-29T00:32:46.554Z,20.00
2023-04-29T00:33:46.881Z,0.00
2023-04-29T00:34:47.189Z,0.00
2023-04-29T00:35:47.512Z,0.00
2023-04-29T00:36:47.838Z,0.00
2023-04-29T00:37:48.197Z,0.00
2023-04-29T00:38:48.392Z,0.00
2023-04-29T00:39:48.711Z,0.00
2023-04-29T00:40:49.026Z,0.00
2023-04-29T00:41:49.354Z,0.00
2023-04-29T00:42:49.658Z,0.00
2023-04-29T00:43:49.988Z,0.00
2023-04-29T00:44:50.278Z,0.00
2023-04-29T00:45:50.660Z,0.00
2023-04-29T00:46:50.850Z,0.00
2023-04-29T00:47:51.200Z,0.00
2023-04-29T00:48:51.511Z,0.00
2023-04-29T00:49:51.969Z,0.00
2023-04-29T00:50:52.115Z,0.00
2023-04-29T00:51:52.448Z,0.00
2023-04-29T00:52:52.774Z,0.00
2023-04-29T00:53:53.060Z,0.00
2023-04-29T00:54:53.370Z,0.00
2023-04-29T00:55:53.679Z,0.00
2023-04-29T00:56:54.045Z,0.00
2023-04-29T00:57:54.244Z,0.00
2023-04-29T00:58:54.559Z,0.00
2023-04-29T00:59:55.075Z,0.00
2023-04-29T01:00:56.363Z,0.00
2023-04-29T01:01:55.528Z,0.00
2023-04-29T01:02:55.756Z,0.00
2023-04-29T01:03:56.221Z,0.00
2023-04-29T01:04:56.529Z,0.00
2023-04-29T01:05:56.672Z,0.00
2023-04-29T01:06:56.998Z,0.00
2023-04-29T01:07:57.336Z,0.00
2023-04-29T01:08:57.611Z,0.00
2023-04-29T01:09:57.975Z,0.00
2023-04-29T01:10:58.261Z,0.00
2023-04-29T01:11:58.602Z,0.00
2023-04-29T01:12:58.886Z,0.00
2023-04-29T01:13:59.192Z,0.00
2023-04-29T01:14:59.600Z,0.00
2023-04-29T01:15:59.833Z,0.00
2023-04-29T01:17:00.141Z,0.00
2023-04-29T01:18:00.495Z,0.00
2023-04-29T01:19:00.761Z,0.00
2023-04-29T01:20:01.074Z,0.00
2023-04-29T01:21:01.520Z,0.00
2023-04-29T01:22:01.838Z,0.00
2023-04-29T01:23:02.036Z,0.00
2023-04-29T01:24:02.329Z,0.00
2023-04-29T01:25:02.640Z,0.00
2023-04-29T01:26:02.949Z,0.00
2023-04-29T01:27:03.276Z,0.00
2023-04-29T01:28:03.580Z,0.00
2023-04-29T01:29:03.886Z,0.00
2023-04-29T01:30:04.178Z,0.00
2023-04-29T01:31:04.594Z,0.00
2023-04-29T01:32:04.739Z,0.00
2023-04-29T01:33:05.048Z,0.00
2023-04-29T01:34:05.351Z,0.00
2023-04-29T01:35:05.650Z,0.00
2023-04-29T01:36:05.982Z,0.00
2023-04-29T01:37:06.315Z,0.00
2023-04-29T01:38:06.618Z,0.00
2023-04-29T01:39:06.908Z,0.00
2023-04-29T01:40:07.221Z,0.00
2023-04-29T01:41:07.551Z,0.00
2023-04-29T01:42:07.881Z,0.00
2023-04-29T01:43:08.216Z,0.00
2023-04-29T01:44:08.521Z,0.00
2023-04-29T01:45:08.858Z,0.00
2023-04-29T01:46:09.165Z,0.00
2023-04-29T01:47:09.480Z,0.00
2023-04-29T01:48:09.785Z,0.00
2023-04-29T01:49:10.089Z,0.00
2023-04-29T01:50:10.385Z,0.00
2023-04-29T01:51:10.703Z,0.00
2023-04-29T01:52:11.019Z,0.00
2023-04-29T01:53:11.343Z,0.00
2023-04-29T01:54:11.661Z,0.00
2023-04-29T01:55:11.958Z,0.00
2023-04-29T01:56:12.331Z,0.00
2023-04-29T01:57:12.606Z,0.00
2023-04-29T01:58:12.941Z,0.00
2023-04-29T01:59:13.238Z,0.00
2023-04-29T02:00:13.557Z,0.00
2023-04-29T02:01:13.891Z,0.00
2023-04-29T02:02:14.197Z,0.00
2023-04-29T02:03:14.553Z,0.00
2023-04-29T02:04:14.876Z,0.00
2023-04-29T02:05:15.198Z,0.00
2023-04-29T02:06:15.508Z,0.00
2023-04-29T02:07:15.819Z,0.00
2023-04-29T02:08:16.163Z,0.00
2023-04-29T02:09:16.464Z,0.00
2023-04-29T02:10:16.776Z,0.00
2023-04-29T02:11:17.110Z,0.00
2023-04-29T02:12:17.419Z,0.00
2023-04-29T02:13:17.729Z,0.00
2023-04-29T02:14:18.035Z,0.00
2023-04-29T02:15:18.352Z,0.00
2023-04-29T02:16:18.731Z,0.00
2023-04-29T02:17:19.013Z,0.00
2023-04-29T02:18:19.319Z,0.00
2023-04-29T02:19:19.612Z,0.00
2023-04-29T02:20:19.922Z,0.00
2023-04-29T02:21:20.252Z,0.00
2023-04-29T02:22:20.566Z,0.00
2023-04-29T02:23:20.879Z,0.00
2023-04-29T02:24:21.183Z,0.00
2023-04-29T02:25:21.488Z,0.00
2023-04-29T02:26:21.808Z,0.00
2023-04-29T02:27:22.136Z,0.00
2023-04-29T02:28:22.434Z,0.00
2023-04-29T02:29:22.746Z,0.00
2023-04-29T02:30:23.062Z,0.00
2023-04-29T02:31:23.406Z,0.00
2023-04-29T02:32:23.755Z,0.00
2023-04-29T02:33:24.014Z,0.00
2023-04-29T02:34:24.352Z,0.00
2023-04-29T02:35:24.654Z,0.00
2023-04-29T02:36:24.992Z,0.00
2023-04-29T02:37:25.273Z,0.00
2023-04-29T02:38:25.587Z,0.00
2023-04-29T02:39:25.912Z,0.00
2023-04-29T02:40:26.213Z,0.00
2023-04-29T02:41:26.628Z,0.00
2023-04-29T02:42:26.870Z,0.00
2023-04-29T02:43:27.163Z,0.00
2023-04-29T02:44:27.494Z,0.00
2023-04-29T02:45:27.776Z,0.00
2023-04-29T02:46:28.135Z,0.00
2023-04-29T02:47:28.466Z,0.00
2023-04-29T02:48:28.777Z,0.00
2023-04-29T02:49:29.096Z,0.00
2023-04-29T02:50:29.420Z,0.00
2023-04-29T02:51:29.736Z,0.00
2023-04-29T02:52:30.061Z,0.00
2023-04-29T02:53:30.389Z,0.00
2023-04-29T02:54:30.681Z,0.00
2023-04-29T02:55:30.988Z,0.00
2023-04-29T02:56:31.321Z,0.00
2023-04-29T02:57:31.623Z,0.00
2023-04-29T02:58:31.959Z,0.00
2023-04-29T02:59:32.253Z,0.00
2023-04-29T03:00:32.573Z,0.00
2023-04-29T03:01:32.924Z,0.00
2023-04-29T03:02:33.183Z,0.00
2023-04-29T03:03:33.569Z,0.00
2023-04-29T03:04:33.840Z,0.00
2023-04-29T03:05:34.049Z,0.00
2023-04-29T03:06:34.387Z,0.00
2023-04-29T03:07:34.701Z,0.00
2023-04-29T03:08:35.014Z,0.00
2023-04-29T03:09:35.354Z,0.00
2023-04-29T03:10:35.643Z,0.00
2023-04-29T03:11:35.972Z,4.00
2023-04-29T03:12:36.314Z,0.00
2023-04-29T03:13:36.603Z,4.00
2023-04-29T03:14:36.901Z,4.00
2023-04-29T03:15:37.222Z,8.00
2023-04-29T03:16:37.618Z,4.00
2023-04-29T03:17:37.835Z,8.00
2023-04-29T03:18:38.137Z,8.00
2023-04-29T03:19:38.455Z,12.00
2023-04-29T03:20:38.767Z,8.00
2023-04-29T03:21:39.075Z,12.00
2023-04-29T03:22:39.411Z,12.00
2023-04-29T03:23:39.738Z,12.00
2023-04-29T03:24:47.843Z,16.00
2023-04-29T03:25:40.397Z,12.00
2023-04-29T03:26:40.615Z,16.00
2023-04-29T03:27:40.972Z,16.00
2023-04-29T03:28:41.209Z,20.00
2023-04-29T03:29:41.382Z,20.00
2023-04-29T03:30:41.748Z,24.00
2023-04-29T03:31:41.985Z,24.00
2023-04-29T03:32:42.363Z,24.00
2023-04-29T03:33:42.648Z,24.00
2023-04-29T03:34:42.892Z,28.00
2023-04-29T03:35:43.254Z,28.00
2023-04-29T03:36:43.487Z,28.00
2023-04-29T03:37:43.703Z,28.00
2023-04-29T03:38:44.089Z,32.00
2023-04-29T03:39:44.283Z,32.00
2023-04-29T03:40:44.661Z,36.00
2023-04-29T03:41:44.849Z,32.00
2023-04-29T03:42:45.262Z,32.00
2023-04-29T03:43:45.452Z,36.00
2023-04-29T03:44:45.794Z,36.00
2023-04-29T03:45:46.295Z,36.00
2023-04-29T03:46:46.519Z,40.00
2023-04-29T03:47:46.854Z,40.00
2023-04-29T03:48:47.175Z,44.00
2023-04-29T03:49:47.560Z,48.00
2023-04-29T03:50:47.844Z,48.00
2023-04-29T03:51:48.190Z,48.00
2023-04-29T03:52:48.520Z,52.00
2023-04-29T03:53:48.861Z,60.00
2023-04-29T03:54:49.193Z,64.00
2023-04-29T03:55:49.566Z,68.00
2023-04-29T03:56:49.898Z,72.00
2023-04-29T03:57:50.126Z,80.00
2023-04-29T03:58:50.362Z,88.00
2023-04-29T03:59:51.263Z,92.00
2023-04-29T04:00:50.985Z,92.00
2023-04-29T04:01:51.187Z,96.00
2023-04-29T04:02:51.544Z,104.00
2023-04-29T04:03:51.817Z,116.00
2023-04-29T04:04:52.019Z,112.00
2023-04-29T04:05:52.304Z,112.00
2023-04-29T04:06:52.526Z,112.00
2023-04-29T04:07:52.787Z,116.00
2023-04-29T04:08:53.096Z,128.00
2023-04-29T04:09:53.887Z,132.00
2023-04-29T04:10:53.713Z,136.00
2023-04-29T04:11:53.950Z,132.00
2023-04-29T04:12:54.187Z,120.00
2023-04-29T04:13:54.544Z,120.00
2023-04-29T04:14:54.896Z,116.00
2023-04-29T04:15:55.179Z,108.00
2023-04-29T04:16:55.371Z,104.00
2023-04-29T04:17:55.831Z,100.00
2023-04-29T04:18:56.016Z,96.00
2023-04-29T04:19:56.365Z,100.00
2023-04-29T04:20:56.704Z,104.00
2023-04-29T04:21:56.931Z,108.00
2023-04-29T04:22:57.262Z,112.00
2023-04-29T04:23:57.681Z,112.00
2023-04-29T04:24:57.897Z,112.00
2023-04-29T04:25:58.125Z,108.00
2023-04-29T04:26:58.514Z,108.00
2023-04-29T04:27:58.780Z,104.00
2023-04-29T04:28:59.031Z,108.00
2023-04-29T04:29:59.292Z,112.00
2023-04-29T04:30:59.573Z,116.00
2023-04-29T04:31:59.865Z,116.00
2023-04-29T04:33:00.172Z,124.00
2023-04-29T04:34:00.572Z,128.00
2023-04-29T04:35:00.859Z,128.00
2023-04-29T04:36:01.115Z,128.00
2023-04-29T04:37:01.356Z,140.00
2023-04-29T04:38:01.561Z,152.00
2023-04-29T04:39:01.844Z,168.00
2023-04-29T04:40:02.076Z,180.00
2023-04-29T04:41:02.484Z,188.00
2023-04-29T04:42:02.696Z,196.00
2023-04-29T04:43:02.925Z,204.00
2023-04-29T04:44:03.236Z,196.00
2023-04-29T04:45:03.432Z,184.00
2023-04-29T04:46:03.789Z,184.00
2023-04-29T04:47:03.953Z,180.00
2023-04-29T04:48:04.313Z,176.00
2023-04-29T04:49:04.479Z,180.00
2023-04-29T04:50:04.949Z,184.00
2023-04-29T04:51:05.192Z,192.00
2023-04-29T04:52:05.440Z,192.00
2023-04-29T04:53:05.696Z,196.00
2023-04-29T04:54:05.926Z,200.00
2023-04-29T04:55:06.160Z,204.00
2023-04-29T04:56:06.418Z,212.00
2023-04-29T04:57:06.653Z,216.00
2023-04-29T04:58:06.916Z,220.00
2023-04-29T04:59:07.124Z,224.00
2023-04-29T05:00:07.498Z,228.00
2023-04-29T05:01:07.783Z,236.00
2023-04-29T05:02:08.088Z,244.00
2023-04-29T05:03:08.476Z,244.00
2023-04-29T05:04:08.744Z,244.00
2023-04-29T05:05:08.847Z,252.00
2023-04-29T05:06:09.088Z,260.00
2023-04-29T05:07:09.321Z,260.00
2023-04-29T05:08:09.743Z,252.00
2023-04-29T05:09:09.978Z,252.00
2023-04-29T05:10:10.203Z,248.00
2023-04-29T05:11:10.562Z,248.00
2023-04-29T05:12:10.811Z,264.00
2023-04-29T05:13:11.050Z,272.00
2023-04-29T05:14:11.313Z,288.00
2023-04-29T05:15:11.542Z,300.00
2023-04-29T05:16:11.820Z,304.00
2023-04-29T05:17:12.023Z,320.00
2023-04-29T05:18:12.413Z,348.00
2023-04-29T05:19:12.691Z,388.00
2023-04-29T05:20:12.947Z,444.00
2023-04-29T05:21:14.160Z,512.00
2023-04-29T05:22:13.495Z,596.00
2023-04-29T05:23:13.738Z,668.00
2023-04-29T05:24:13.984Z,708.00
2023-04-29T05:25:14.220Z,744.00
2023-04-29T05:26:14.478Z,772.00
2023-04-29T05:27:14.729Z,800.00
2023-04-29T05:28:14.960Z,820.00
2023-04-29T05:29:15.225Z,836.00
2023-04-29T05:30:15.471Z,840.00
2023-04-29T05:31:15.799Z,832.00
2023-04-29T05:32:16.025Z,820.00
2023-04-29T05:33:16.331Z,812.00
2023-04-29T05:34:16.685Z,812.00
2023-04-29T05:35:16.828Z,808.00
2023-04-29T05:36:17.143Z,808.00
2023-04-29T05:37:17.398Z,824.00
2023-04-29T05:38:17.647Z,844.00
2023-04-29T05:39:17.872Z,896.00
2023-04-29T05:40:18.143Z,992.00
2023-04-29T05:41:18.476Z,1084.00
2023-04-29T05:42:18.722Z,1196.00
2023-04-29T05:43:19.043Z,1260.00
2023-04-29T05:44:19.339Z,1284.00
2023-04-29T05:45:19.618Z,1284.00
2023-04-29T05:46:20.720Z,1292.00
2023-04-29T05:47:20.254Z,1300.00
2023-04-29T05:48:20.542Z,1276.00
2023-04-29T05:49:20.812Z,1260.00
2023-04-29T05:50:21.161Z,1180.00
2023-04-29T05:51:21.452Z,1156.00
2023-04-29T05:52:22.518Z,1044.00
2023-04-29T05:53:21.970Z,1028.00
2023-04-29T05:54:22.249Z,996.00
2023-04-29T05:55:22.548Z,964.00
2023-04-29T05:56:22.875Z,932.00
2023-04-29T05:57:23.153Z,928.00
2023-04-29T05:58:23.485Z,920.00
2023-04-29T05:59:23.752Z,940.00
2023-04-29T06:00:24.185Z,892.00
2023-04-29T06:01:24.419Z,952.00
2023-04-29T06:02:24.709Z,1116.00
2023-04-29T06:03:25.178Z,1172.00
2023-04-29T06:04:25.352Z,1256.00
2023-04-29T06:05:25.616Z,1180.00
2023-04-29T06:06:25.749Z,1140.00
2023-04-29T06:07:25.975Z,1204.00
2023-04-29T06:08:26.283Z,1204.00
2023-04-29T06:09:28.011Z,1224.00
2023-04-29T06:10:26.835Z,1224.00
2023-04-29T06:11:27.150Z,1228.00
2023-04-29T06:12:27.477Z,1144.00
2023-04-29T06:13:27.819Z,1080.00
2023-04-29T06:14:28.130Z,1148.00
2023-04-29T06:15:28.451Z,1168.00
2023-04-29T06:16:28.789Z,1164.00
2023-04-29T06:17:29.108Z,1272.00
2023-04-29T06:18:29.360Z,1296.00
2023-04-29T06:19:30.378Z,1252.00
2023-04-29T06:20:29.903Z,1256.00
2023-04-29T06:21:30.177Z,1188.00
2023-04-29T06:22:30.437Z,1252.00
2023-04-29T06:23:30.732Z,1296.00
2023-04-29T06:24:30.975Z,1384.00
2023-04-29T06:25:31.295Z,1456.00
2023-04-29T06:26:31.676Z,1568.00
2023-04-29T06:27:31.829Z,1576.00
2023-04-29T06:28:32.099Z,1608.00
2023-04-29T06:29:32.402Z,1544.00
2023-04-29T06:30:32.799Z,1540.00
2023-04-29T06:31:33.726Z,1464.00
2023-04-29T06:32:33.354Z,1452.00
2023-04-29T06:33:33.595Z,1480.00
2023-04-29T06:34:33.874Z,1408.00
2023-04-29T06:35:34.165Z,1440.00
2023-04-29T06:36:34.457Z,1440.00
2023-04-29T06:37:37.059Z,1500.00
2023-04-29T06:38:35.859Z,1644.00
2023-04-29T06:39:35.344Z,1864.00
2023-04-29T06:40:35.681Z,1924.00
2023-04-29T06:41:35.936Z,2024.00
2023-04-29T06:42:36.967Z,1992.00
2023-04-29T06:43:36.562Z,2140.00
2023-04-29T06:44:37.201Z,2308.00
2023-04-29T06:45:37.294Z,2400.00
2023-04-29T06:46:37.504Z,2336.00
2023-04-29T06:47:38.025Z,2396.00
2023-04-29T06:48:38.051Z,2472.00
2023-04-29T06:49:38.448Z,2548.00
2023-04-29T06:50:38.673Z,2540.00
2023-04-29T06:51:38.891Z,2468.00
2023-04-29T06:52:39.259Z,2276.00
2023-04-29T06:53:39.453Z,2120.00
2023-04-29T06:54:39.762Z,1956.00
2023-04-29T06:55:40.118Z,1964.00
2023-04-29T06:56:40.479Z,1996.00
2023-04-29T06:57:40.712Z,1988.00
2023-04-29T06:58:41.041Z,1952.00
2023-04-29T06:59:41.324Z,1964.00
2023-04-29T07:00:41.689Z,1988.00
2023-04-29T07:01:44.296Z,1992.00
2023-04-29T07:02:42.303Z,2032.00
2023-04-29T07:03:42.590Z,1928.00
2023-04-29T07:04:42.737Z,1864.00
2023-04-29T07:05:43.042Z,1852.00
2023-04-29T07:06:43.404Z,1968.00
2023-04-29T07:07:43.581Z,2192.00
2023-04-29T07:08:43.898Z,2340.00
2023-04-29T07:09:44.211Z,2588.00
2023-04-29T07:10:44.545Z,2616.00
2023-04-29T07:11:44.867Z,2712.00
2023-04-29T07:12:45.334Z,2784.00
2023-04-29T07:13:45.446Z,2960.00
2023-04-29T07:14:45.795Z,2580.00
2023-04-29T07:15:45.971Z,2332.00
2023-04-29T07:16:46.302Z,2248.00
2023-04-29T07:17:46.633Z,2216.00
2023-04-29T07:18:46.926Z,2180.00
2023-04-29T07:19:47.203Z,2136.00
2023-04-29T07:20:47.464Z,2564.00
2023-04-29T07:21:47.750Z,2848.00
2023-04-29T07:22:47.994Z,3380.00
2023-04-29T07:23:48.265Z,3092.00
2023-04-29T07:24:48.531Z,2716.00
2023-04-29T07:25:49.523Z,2724.00
2023-04-29T07:26:49.123Z,3232.00
2023-04-29T07:27:49.388Z,3164.00
2023-04-29T07:28:49.671Z,3064.00
2023-04-29T07:29:49.955Z,3012.00
2023-04-29T07:30:50.228Z,3332.00
2023-04-29T07:31:50.499Z,3544.00
2023-04-29T07:32:50.798Z,3876.00
2023-04-29T07:33:51.117Z,3768.00
2023-04-29T07:34:51.733Z,3936.00
2023-04-29T07:35:51.621Z,3996.00
2023-04-29T07:36:51.887Z,4340.00
2023-04-29T07:37:52.109Z,4084.00
2023-04-29T07:38:52.361Z,3844.00
2023-04-29T07:39:52.591Z,3964.00
2023-04-29T07:40:52.966Z,4244.00
2023-04-29T07:41:53.244Z,4684.00
2023-04-29T07:42:53.486Z,4500.00
2023-04-29T07:43:53.773Z,4288.00
2023-04-29T07:44:54.393Z,3732.00
2023-04-29T07:45:54.273Z,3440.00
2023-04-29T07:46:54.495Z,3248.00
2023-04-29T07:47:54.777Z,3128.00
2023-04-29T07:48:55.014Z,2808.00
2023-04-29T07:49:55.282Z,2716.00
2023-04-29T07:50:55.571Z,2700.00
2023-04-29T07:51:55.906Z,2576.00
2023-04-29T07:52:56.155Z,2280.00
2023-04-29T07:53:56.424Z,2048.00
2023-04-29T07:54:56.707Z,2164.00
2023-04-29T07:55:56.967Z,2208.00
2023-04-29T07:56:58.042Z,2268.00
2023-04-29T07:58:00.006Z,2336.00
2023-04-29T07:58:57.798Z,2640.00
2023-04-29T07:59:58.066Z,2832.00
2023-04-29T08:00:58.381Z,2964.00
2023-04-29T08:01:58.637Z,3180.00
2023-04-29T08:02:59.122Z,3512.00
2023-04-29T08:03:59.390Z,3808.00
2023-04-29T08:04:59.947Z,3884.00
2023-04-29T08:05:59.734Z,3804.00
2023-04-29T08:06:59.884Z,4064.00
2023-04-29T08:08:04.807Z,4032.00
2023-04-29T08:09:01.566Z,3920.00
2023-04-29T08:10:00.757Z,4176.00
2023-04-29T08:11:01.026Z,4432.00
2023-04-29T08:12:01.310Z,4184.00
2023-04-29T08:13:01.604Z,4220.00
2023-04-29T08:14:01.916Z,4136.00
2023-04-29T08:15:02.280Z,3888.00
2023-04-29T08:16:02.496Z,4260.00
2023-04-29T08:17:02.713Z,5156.00
2023-04-29T08:18:03.051Z,4776.00
2023-04-29T08:19:03.234Z,5928.00
2023-04-29T08:20:03.535Z,5084.00
2023-04-29T08:21:03.825Z,4256.00
2023-04-29T08:22:04.121Z,3936.00
2023-04-29T08:23:04.378Z,3844.00
2023-04-29T08:24:04.705Z,4036.00
2023-04-29T08:25:04.986Z,4668.00
2023-04-29T08:26:05.236Z,5800.00
2023-04-29T08:27:05.518Z,7252.00
2023-04-29T08:28:05.784Z,6084.00
2023-04-29T08:29:06.105Z,6016.00
2023-04-29T08:30:06.336Z,6076.00
2023-04-29T08:31:06.608Z,6744.00
2023-04-29T08:32:07.024Z,7008.00
2023-04-29T08:33:07.272Z,6816.00
2023-04-29T08:34:07.478Z,6384.00
2023-04-29T08:35:07.814Z,6208.00
2023-04-29T08:36:08.079Z,5860.00
2023-04-29T08:37:08.378Z,5480.00
2023-04-29T08:38:08.679Z,5308.00
2023-04-29T08:39:09.103Z,5292.00
2023-04-29T08:40:09.231Z,5220.00
2023-04-29T08:41:09.503Z,5796.00
2023-04-29T08:42:09.764Z,5140.00
2023-04-29T08:43:10.258Z,5040.00
2023-04-29T08:44:10.378Z,4908.00
2023-04-29T08:45:10.674Z,4904.00
2023-04-29T08:46:11.001Z,4624.00
2023-04-29T08:47:11.210Z,4304.00
2023-04-29T08:48:11.559Z,4440.00
2023-04-29T08:49:11.723Z,4480.00
2023-04-29T08:50:11.982Z,3856.00
2023-04-29T08:51:12.262Z,3716.00
2023-04-29T08:52:12.556Z,3820.00
2023-04-29T08:53:12.790Z,4104.00
2023-04-29T08:54:13.097Z,4692.00
2023-04-29T08:55:13.358Z,5048.00
2023-04-29T08:56:13.624Z,6316.00
2023-04-29T08:57:13.900Z,5632.00
2023-04-29T08:58:14.165Z,7812.00
2023-04-29T08:59:14.449Z,7776.00
2023-04-29T09:00:14.733Z,8112.00
2023-04-29T09:01:15.045Z,7808.00
2023-04-29T09:02:15.325Z,7228.00
2023-04-29T09:03:15.667Z,6520.00
2023-04-29T09:04:15.956Z,5992.00
2023-04-29T09:05:16.200Z,5420.00
2023-04-29T09:06:16.470Z,5224.00
2023-04-29T09:07:16.816Z,5164.00
2023-04-29T09:08:17.184Z,5192.00
2023-04-29T09:09:19.125Z,5208.00
2023-04-29T09:10:17.600Z,5800.00
2023-04-29T09:11:17.959Z,5480.00
2023-04-29T09:12:18.283Z,4840.00
2023-04-29T09:13:18.535Z,4816.00
2023-04-29T09:14:18.831Z,4608.00
2023-04-29T09:15:19.124Z,4496.00
2023-04-29T09:16:19.435Z,4328.00
2023-04-29T09:17:19.677Z,4396.00
2023-04-29T09:18:19.930Z,4640.00
2023-04-29T09:19:20.225Z,4504.00
2023-04-29T09:20:20.567Z,4172.00
2023-04-29T09:21:22.272Z,3932.00
2023-04-29T09:22:30.340Z,3736.00
2023-04-29T09:23:22.661Z,4316.00
2023-04-29T09:24:21.840Z,4592.00
2023-04-29T09:25:22.025Z,5100.00
2023-04-29T09:26:22.523Z,5720.00
2023-04-29T09:27:22.538Z,5980.00
2023-04-29T09:28:22.846Z,6156.00
2023-04-29T09:29:23.188Z,7960.00
2023-04-29T09:30:23.559Z,8324.00
2023-04-29T09:31:23.743Z,7796.00
2023-04-29T09:32:24.110Z,7308.00
2023-04-29T09:33:24.360Z,7128.00
2023-04-29T09:34:24.639Z,7572.00
2023-04-29T09:35:24.919Z,7512.00
2023-04-29T09:36:25.218Z,7212.00
2023-04-29T09:37:25.515Z,6060.00
2023-04-29T09:38:25.786Z,5808.00
2023-04-29T09:39:26.598Z,5528.00
2023-04-29T09:40:26.299Z,5284.00
2023-04-29T09:41:26.573Z,5020.00
2023-04-29T09:42:26.922Z,4500.00
2023-04-29T09:43:27.224Z,3924.00
2023-04-29T09:44:27.424Z,2752.00
2023-04-29T09:45:27.673Z,2516.00
2023-04-29T09:46:28.011Z,2552.00
2023-04-29T09:47:28.244Z,2520.00
2023-04-29T09:48:28.492Z,2992.00
2023-04-29T09:49:28.806Z,3216.00
2023-04-29T09:50:29.089Z,3160.00
2023-04-29T09:51:29.350Z,3752.00
2023-04-29T09:52:29.625Z,3964.00
2023-04-29T09:53:29.939Z,4092.00
2023-04-29T09:54:30.150Z,4304.00
2023-04-29T09:55:30.542Z,4148.00
2023-04-29T09:56:30.787Z,4120.00
2023-04-29T09:57:31.023Z,4496.00
2023-04-29T09:58:31.300Z,4096.00
2023-04-29T09:59:31.578Z,4048.00
2023-04-29T10:00:31.891Z,4216.00
2023-04-29T10:01:32.202Z,4276.00
2023-04-29T10:02:32.524Z,4320.00
2023-04-29T10:03:32.984Z,4524.00
2023-04-29T10:04:33.124Z,5160.00
2023-04-29T10:05:33.407Z,5628.00
2023-04-29T10:06:33.671Z,5124.00
2023-04-29T10:07:33.929Z,4692.00
2023-04-29T10:08:34.215Z,4588.00
2023-04-29T10:09:34.538Z,4524.00
2023-04-29T10:10:34.937Z,4856.00
2023-04-29T10:11:35.054Z,5276.00
2023-04-29T10:12:35.315Z,5988.00
2023-04-29T10:13:35.606Z,6712.00
2023-04-29T10:14:35.876Z,7064.00
2023-04-29T10:15:36.217Z,7696.00
2023-04-29T10:16:36.502Z,7528.00
2023-04-29T10:17:36.776Z,7052.00
2023-04-29T10:18:37.202Z,6452.00
2023-04-29T10:19:37.454Z,7204.00
2023-04-29T10:20:37.738Z,8012.00
2023-04-29T10:21:38.049Z,8384.00
2023-04-29T10:22:38.360Z,8748.00
2023-04-29T10:23:38.645Z,8728.00
2023-04-29T10:24:38.970Z,9640.00
2023-04-29T10:25:39.095Z,10040.00
2023-04-29T10:26:39.441Z,10380.00
2023-04-29T10:27:39.752Z,11104.00
2023-04-29T10:28:40.062Z,11864.00
2023-04-29T10:29:40.349Z,11764.00
2023-04-29T10:30:40.641Z,12324.00
2023-04-29T10:31:40.945Z,12732.00
2023-04-29T10:32:50.306Z,12520.00
2023-04-29T10:33:42.487Z,11820.00
2023-04-29T10:34:41.818Z,11500.00
2023-04-29T10:35:42.845Z,12036.00
2023-04-29T10:36:42.437Z,12172.00
2023-04-29T10:37:42.706Z,13120.00
2023-04-29T10:38:43.028Z,14412.00
2023-04-29T10:39:43.295Z,14988.00
2023-04-29T10:40:43.565Z,14936.00
2023-04-29T10:41:43.849Z,13404.00
2023-04-29T10:42:44.133Z,10700.00
2023-04-29T10:43:44.368Z,10880.00
2023-04-29T10:44:44.669Z,10952.00
2023-04-29T10:45:44.918Z,7960.00
2023-04-29T10:46:45.255Z,6196.00
2023-04-29T10:47:45.529Z,5828.00
2023-04-29T10:48:45.763Z,5484.00
2023-04-29T10:49:46.022Z,5572.00
2023-04-29T10:50:46.263Z,6316.00
2023-04-29T10:51:46.503Z,7500.00
2023-04-29T10:52:46.744Z,8252.00
2023-04-29T10:53:47.005Z,8700.00
2023-04-29T10:54:47.244Z,9292.00
2023-04-29T10:55:47.493Z,9608.00
2023-04-29T10:56:47.709Z,10064.00
2023-04-29T10:57:47.978Z,10280.00
2023-04-29T10:58:48.249Z,10880.00
2023-04-29T10:59:48.533Z,11808.00
2023-04-29T11:00:48.810Z,13064.00
2023-04-29T11:01:49.043Z,14116.00
2023-04-29T11:02:49.337Z,14408.00
2023-04-29T11:03:49.756Z,14532.00
2023-04-29T11:04:50.004Z,13668.00
2023-04-29T11:05:50.126Z,12604.00
2023-04-29T11:06:50.423Z,12004.00
2023-04-29T11:07:50.689Z,11004.00
2023-04-29T11:08:50.989Z,11400.00
2023-04-29T11:09:51.394Z,12008.00
2023-04-29T11:10:51.488Z,12096.00
2023-04-29T11:11:51.741Z,12828.00
2023-04-29T11:12:52.046Z,13868.00
2023-04-29T11:13:52.326Z,14420.00
2023-04-29T11:14:52.813Z,14748.00
2023-04-29T11:15:52.864Z,14652.00
2023-04-29T11:16:53.353Z,14044.00
2023-04-29T11:17:53.528Z,13052.00
2023-04-29T11:18:53.759Z,13068.00
2023-04-29T11:19:54.275Z,13432.00
2023-04-29T11:20:54.263Z,13740.00
2023-04-29T11:21:54.613Z,13804.00
2023-04-29T11:22:54.901Z,13908.00
2023-04-29T11:23:55.256Z,13856.00
2023-04-29T11:24:55.773Z,13920.00
2023-04-29T11:25:55.779Z,13956.00
2023-04-29T11:26:56.059Z,13808.00
2023-04-29T11:27:56.306Z,13184.00
2023-04-29T11:28:56.558Z,12876.00
2023-04-29T11:29:57.303Z,13672.00
2023-04-29T11:30:57.150Z,12772.00
2023-04-29T11:31:57.462Z,11924.00
2023-04-29T11:32:57.859Z,11168.00
2023-04-29T11:33:57.951Z,11304.00
2023-04-29T11:34:58.240Z,10908.00
2023-04-29T11:35:58.507Z,11008.00
2023-04-29T11:36:58.746Z,9180.00
2023-04-29T11:37:58.966Z,8188.00
2023-04-29T11:38:59.220Z,8828.00
2023-04-29T11:39:59.504Z,10300.00
2023-04-29T11:40:59.798Z,12636.00
2023-04-29T11:42:00.034Z,13112.00
2023-04-29T11:43:00.295Z,13096.00
2023-04-29T11:44:00.573Z,12800.00
2023-04-29T11:45:00.835Z,12856.00
2023-04-29T11:46:01.169Z,13116.00
2023-04-29T11:47:01.476Z,13344.00
2023-04-29T11:48:01.816Z,13788.00
2023-04-29T11:49:02.035Z,13976.00
2023-04-29T11:50:02.284Z,13288.00
2023-04-29T11:51:02.545Z,11284.00
2023-04-29T11:52:02.793Z,11388.00
2023-04-29T11:53:03.028Z,12992.00
2023-04-29T11:54:03.293Z,12928.00
2023-04-29T11:55:03.569Z,12268.00
2023-04-29T11:56:03.861Z,12616.00
2023-04-29T11:57:04.094Z,12408.00
2023-04-29T11:58:04.354Z,12444.00
2023-04-29T11:59:04.623Z,12072.00
2023-04-29T12:00:06.082Z,12056.00
2023-04-29T12:01:05.876Z,11956.00
2023-04-29T12:02:05.481Z,11884.00
2023-04-29T12:03:05.919Z,12188.00
2023-04-29T12:04:06.212Z,12276.00
2023-04-29T12:05:06.415Z,11740.00
2023-04-29T12:06:08.311Z,11552.00
2023-04-29T12:07:06.798Z,11736.00
2023-04-29T12:08:07.043Z,11028.00
2023-04-29T12:09:07.366Z,11960.00
2023-04-29T12:10:07.652Z,12112.00
2023-04-29T12:11:07.892Z,13028.00
2023-04-29T12:12:08.266Z,13020.00
2023-04-29T12:13:10.269Z,12576.00
2023-04-29T12:14:08.821Z,11908.00
2023-04-29T12:15:09.145Z,11132.00
2023-04-29T12:16:09.467Z,10772.00
2023-04-29T12:17:09.703Z,10404.00
2023-04-29T12:18:10.012Z,10660.00
2023-04-29T12:19:10.247Z,10628.00
2023-04-29T12:20:10.974Z,11544.00
2023-04-29T12:21:10.804Z,12124.00
2023-04-29T12:22:11.123Z,11988.00
2023-04-29T12:23:11.303Z,11384.00
2023-04-29T12:24:11.542Z,10504.00
2023-04-29T12:25:11.809Z,10656.00
2023-04-29T12:26:12.040Z,10884.00
2023-04-29T12:27:12.282Z,9668.00
2023-04-29T12:28:12.504Z,8352.00
2023-04-29T12:29:12.900Z,7112.00
2023-04-29T12:30:13.264Z,7096.00